Time;durP1;ratioP1;P1;durP2;ratioP2;P2;SDS_P1;SDS_P2;PMS_P1;PMS_P2;Temp;Humidity;BMP_temperature;BMP_pressure;BME280_temperature;BME280_humidity;BME280_pressure;Samples;Min_cycle;Max_cycle;Signal;HPM_P1;HPM_P2
2023/06/25 00:00:09;;;;;;;21.50;14.20;;;;;;;19.14;100.00;101919.84;5108259;28;20024;-72
2023/06/25 00:02:35;;;;;;;18.27;13.00;;;;;;;19.13;100.00;101924.44;5107999;28;20024;-72
2023/06/25 00:05:00;;;;;;;16.98;12.00;;;;;;;19.15;100.00;101918.78;5109244;28;20036;-72
2023/06/25 00:07:25;;;;;;;17.63;11.38;;;;;;;19.07;100.00;101914.50;5109370;28;20031;-72
2023/06/25 00:09:55;;;;;;;20.23;13.55;;;;;;;19.11;100.00;101915.72;5109680;28;20070;-72
2023/06/25 00:12:21;;;;;;;19.63;13.88;;;;;;;19.02;100.00;101908.94;5109073;28;20383;-72
2023/06/25 00:14:46;;;;;;;18.65;13.60;;;;;;;18.94;100.00;101912.81;5109273;28;20114;-72
2023/06/25 00:17:13;;;;;;;20.77;14.15;;;;;;;18.88;100.00;101907.47;5109654;28;20122;-72
2023/06/25 00:19:41;;;;;;;18.73;13.32;;;;;;;18.87;100.00;101912.06;5107902;28;20027;-72
2023/06/25 00:22:06;;;;;;;23.17;15.18;;;;;;;18.86;100.00;101909.56;5109126;28;20478;-72
2023/06/25 00:24:32;;;;;;;20.00;13.75;;;;;;;18.92;100.00;101908.69;5110172;28;20020;-72
2023/06/25 00:26:57;;;;;;;19.92;14.75;;;;;;;18.86;100.00;101912.25;5111711;28;20023;-72
2023/06/25 00:29:22;;;;;;;20.83;14.65;;;;;;;18.88;100.00;101910.16;5113153;28;20019;-72
2023/06/25 00:31:48;;;;;;;21.55;15.20;;;;;;;18.78;100.00;101910.69;5113106;28;20028;-72
2023/06/25 00:34:13;;;;;;;19.50;13.35;;;;;;;18.73;100.00;101902.41;5112803;28;20027;-72
2023/06/25 00:36:40;;;;;;;19.70;14.75;;;;;;;18.76;100.00;101892.00;5113188;28;20036;-72
2023/06/25 00:39:06;;;;;;;18.33;13.38;;;;;;;18.75;100.00;101903.84;5113129;28;20042;-72
2023/06/25 00:41:32;;;;;;;20.20;14.07;;;;;;;18.73;100.00;101892.44;5113157;28;20032;-71
2023/06/25 00:43:57;;;;;;;19.88;15.23;;;;;;;18.68;100.00;101896.84;5113028;28;20028;-71
2023/06/25 00:46:23;;;;;;;20.70;14.65;;;;;;;18.60;100.00;101901.50;5112769;28;20035;-72
2023/06/25 00:48:49;;;;;;;20.25;15.82;;;;;;;18.62;100.00;101891.28;5112892;28;20086;-72
2023/06/25 00:51:21;;;;;;;21.70;15.15;;;;;;;18.55;100.00;101890.56;5113041;28;20031;-72
2023/06/25 00:53:47;;;;;;;20.98;15.00;;;;;;;18.43;100.00;101884.22;5112668;27;20094;-72
2023/06/25 00:56:12;;;;;;;20.60;14.73;;;;;;;18.46;100.00;101880.25;5112784;28;20031;-72
2023/06/25 00:58:39;;;;;;;21.10;15.43;;;;;;;18.42;100.00;101885.28;5112540;28;20039;-72
2023/06/25 01:01:11;;;;;;;21.33;16.25;;;;;;;18.40;100.00;101888.19;5112695;28;20106;-72
2023/06/25 01:03:44;;;;;;;18.55;13.93;;;;;;;18.26;100.00;101875.03;5112602;28;20020;-72
2023/06/25 01:06:12;;;;;;;19.10;13.98;;;;;;;18.36;100.00;101878.06;5112494;28;20378;-72
2023/06/25 01:08:38;;;;;;;19.70;14.57;;;;;;;18.28;100.00;101871.06;5111358;28;20022;-72
2023/06/25 01:11:05;;;;;;;19.58;13.63;;;;;;;18.32;100.00;101869.59;5112691;28;20036;-72
2023/06/25 01:13:30;;;;;;;19.90;13.27;;;;;;;18.26;100.00;101866.94;5112420;28;20059;-72
2023/06/25 01:15:56;;;;;;;19.80;14.07;;;;;;;18.29;100.00;101863.81;5112375;28;20027;-72
2023/06/25 01:18:22;;;;;;;19.60;13.25;;;;;;;18.24;100.00;101866.38;5112346;28;20072;-72
2023/06/25 01:20:51;;;;;;;20.50;13.02;;;;;;;18.14;100.00;101864.16;5110814;28;20036;-72
2023/06/25 01:23:17;;;;;;;20.15;16.60;;;;;;;18.08;100.00;101871.28;5112233;28;20024;-72
2023/06/25 01:25:47;;;;;;;23.90;15.90;;;;;;;18.06;100.00;101867.16;5112221;28;20038;-72
2023/06/25 01:28:13;;;;;;;21.63;15.68;;;;;;;18.06;100.00;101864.44;5110783;28;20066;-72
2023/06/25 01:30:38;;;;;;;21.27;14.90;;;;;;;17.99;100.00;101851.00;5112336;28;20114;-72
2023/06/25 01:33:03;;;;;;;20.25;15.15;;;;;;;18.05;100.00;101851.97;5110570;28;20585;-72
2023/06/25 01:35:29;;;;;;;20.52;15.48;;;;;;;17.98;100.00;101853.94;5093874;28;20482;-72
2023/06/25 01:37:54;;;;;;;22.45;16.58;;;;;;;17.95;100.00;101857.91;5110994;28;20032;-72
2023/06/25 01:40:20;;;;;;;19.70;14.73;;;;;;;17.88;100.00;101846.31;5112041;28;20115;-72
2023/06/25 01:42:45;;;;;;;20.73;16.65;;;;;;;17.86;100.00;101846.53;5110358;28;20020;-72
2023/06/25 01:45:13;;;;;;;25.27;15.57;;;;;;;17.88;100.00;101846.31;5112018;28;20027;-72
2023/06/25 01:47:39;;;;;;;21.00;16.45;;;;;;;17.88;100.00;101836.34;5111641;28;20039;-72
2023/06/25 01:50:05;;;;;;;20.80;16.25;;;;;;;17.87;100.00;101842.00;5111803;28;20035;-72
2023/06/25 01:52:31;;;;;;;23.05;17.45;;;;;;;17.82;100.00;101837.25;5111715;27;20128;-72
2023/06/25 01:54:56;;;;;;;21.17;15.10;;;;;;;17.81;100.00;101835.56;5111775;28;20046;-72
2023/06/25 01:57:22;;;;;;;22.65;16.90;;;;;;;17.81;100.00;101832.88;5111830;28;20471;-72
2023/06/25 01:59:47;;;;;;;22.70;17.58;;;;;;;17.79;100.00;101826.91;5111343;27;20039;-72
2023/06/25 02:02:12;;;;;;;21.42;16.65;;;;;;;17.73;100.00;101835.81;5111153;28;20042;-72
2023/06/25 02:04:38;;;;;;;23.33;16.95;;;;;;;17.68;100.00;101827.56;5111369;28;20038;-72
2023/06/25 02:07:03;;;;;;;21.08;16.48;;;;;;;17.64;100.00;101829.06;5111494;28;20118;-72
2023/06/25 02:09:29;;;;;;;22.73;18.75;;;;;;;17.63;100.00;101819.31;5111135;28;20027;-72
2023/06/25 02:11:54;;;;;;;24.10;19.60;;;;;;;17.56;100.00;101819.38;5111397;28;20024;-72
2023/06/25 02:14:21;;;;;;;24.23;18.30;;;;;;;17.53;100.00;101820.63;5111731;28;20067;-72
2023/06/25 02:16:46;;;;;;;22.08;17.13;;;;;;;17.53;100.00;101803.63;5109957;28;20115;-72
2023/06/25 02:19:11;;;;;;;23.70;16.55;;;;;;;17.56;100.00;101808.56;5111211;28;20449;-72
2023/06/25 02:21:37;;;;;;;23.15;18.33;;;;;;;17.49;100.00;101808.63;5109841;28;20039;-72
2023/06/25 02:24:02;;;;;;;22.80;17.05;;;;;;;17.46;100.00;101803.66;5111162;28;20020;-72
2023/06/25 02:26:29;;;;;;;21.83;16.35;;;;;;;17.48;100.00;101806.97;5111053;28;20024;-72
2023/06/25 02:28:55;;;;;;;22.48;17.42;;;;;;;17.42;100.00;101797.06;5111105;28;20023;-72
2023/06/25 02:31:20;;;;;;;21.10;16.52;;;;;;;17.41;100.00;101794.59;5110765;28;20036;-72
2023/06/25 02:33:46;;;;;;;22.65;16.48;;;;;;;17.39;100.00;101792.09;5110789;28;20489;-72
2023/06/25 02:36:11;;;;;;;22.30;17.50;;;;;;;17.35;100.00;101790.91;5110779;28;20062;-72
2023/06/25 02:38:36;;;;;;;25.02;18.33;;;;;;;17.29;100.00;101787.22;5110491;28;20034;-72
2023/06/25 02:41:02;;;;;;;22.08;17.98;;;;;;;17.28;100.00;101790.09;5109310;28;20034;-72
2023/06/25 02:43:27;;;;;;;22.48;17.10;;;;;;;17.22;100.00;101789.13;5110729;27;20023;-72
2023/06/25 02:45:52;;;;;;;23.58;16.90;;;;;;;17.20;100.00;101784.97;5109148;28;20089;-72
2023/06/25 02:48:18;;;;;;;22.95;17.55;;;;;;;17.15;100.00;101769.44;5110817;27;20035;-72
2023/06/25 02:50:43;;;;;;;21.77;16.42;;;;;;;17.22;100.00;101782.91;5110594;28;20480;-72
2023/06/25 02:53:09;;;;;;;22.58;17.08;;;;;;;17.21;100.00;101781.22;5110583;28;20048;-72
2023/06/25 02:55:34;;;;;;;18.80;13.98;;;;;;;17.25;100.00;101782.47;5109263;28;20062;-72
2023/06/25 02:57:59;;;;;;;21.48;15.73;;;;;;;17.23;100.00;101784.53;5110839;28;20356;-72
2023/06/25 03:00:25;;;;;;;22.02;17.50;;;;;;;17.23;100.00;101784.53;5109057;28;20053;-72
2023/06/25 03:02:50;;;;;;;21.83;17.77;;;;;;;17.19;100.00;101786.84;5110200;28;20035;-72
2023/06/25 03:05:15;;;;;;;21.77;16.52;;;;;;;17.14;100.00;101775.06;5108726;28;20379;-72
2023/06/25 03:07:55;;;;;;;21.08;15.95;;;;;;;17.16;100.00;101773.81;5110344;28;20043;-72
2023/06/25 03:10:27;;;;;;;21.38;16.23;;;;;;;17.15;100.00;101782.09;5108817;28;20027;-72
2023/06/25 03:12:52;;;;;;;;;;;;;;;17.23;100.00;101782.66;5110494;28;20587;-72
2023/06/25 03:15:17;;;;;;;20.50;15.70;;;;;;;17.14;100.00;101784.00;5110053;28;19915;-72
2023/06/25 03:17:44;;;;;;;22.25;17.25;;;;;;;17.06;100.00;101779.69;5110117;28;20080;-72
2023/06/25 03:20:10;;;;;;;21.02;18.38;;;;;;;17.01;100.00;101784.06;5109795;28;20024;-72
2023/06/25 03:22:35;;;;;;;22.25;18.48;;;;;;;17.00;100.00;101780.56;5109753;28;20147;-72
2023/06/25 03:25:02;;;;;;;20.92;16.95;;;;;;;16.99;100.00;101781.59;5109893;28;20436;-72
2023/06/25 03:27:27;;;;;;;19.42;15.52;;;;;;;16.95;100.00;101776.84;5109810;28;20122;-72
2023/06/25 03:29:52;;;;;;;22.02;14.98;;;;;;;16.94;100.00;101773.31;5109619;28;20440;-72
2023/06/25 03:32:18;;;;;;;20.27;16.13;;;;;;;16.99;100.00;101772.69;5108217;28;20030;-72
2023/06/25 03:34:43;;;;;;;23.55;19.20;;;;;;;17.00;100.00;101775.16;5109701;28;20019;-72
2023/06/25 03:37:08;;;;;;;22.65;16.95;;;;;;;17.04;100.00;101772.84;5109652;28;20460;-72
2023/06/25 03:39:34;;;;;;;21.08;16.10;;;;;;;16.99;100.00;101761.91;5109696;28;20390;-72
2023/06/25 03:41:59;;;;;;;22.15;16.67;;;;;;;17.07;100.00;101772.41;5109564;28;20119;-72
2023/06/25 03:44:24;;;;;;;21.90;18.27;;;;;;;17.04;100.00;101768.28;5109485;28;20543;-72
2023/06/25 03:46:50;;;;;;;25.77;18.73;;;;;;;16.91;100.00;101757.59;5109495;28;20027;-72
2023/06/25 03:49:15;;;;;;;22.33;17.48;;;;;;;16.92;100.00;101767.31;5109537;28;20034;-72
2023/06/25 03:51:40;;;;;;;23.50;18.63;;;;;;;16.95;100.00;101756.13;5109420;28;20053;-72
2023/06/25 03:54:06;;;;;;;24.17;19.17;;;;;;;16.96;100.00;101752.38;5109294;28;20513;-72
2023/06/25 03:56:31;;;;;;;22.45;19.35;;;;;;;16.95;100.00;101757.97;5109491;28;20242;-72
2023/06/25 03:58:57;;;;;;;24.15;18.08;;;;;;;16.93;100.00;101757.38;5108891;28;20027;-72
2023/06/25 04:01:22;;;;;;;24.60;17.40;;;;;;;17.02;100.00;101758.75;5108157;28;20039;-72
2023/06/25 04:03:47;;;;;;;22.55;17.15;;;;;;;17.03;100.00;101755.88;5109245;28;20020;-72
2023/06/25 04:06:13;;;;;;;23.35;19.02;;;;;;;17.07;100.00;101756.25;5109413;28;20023;-72
2023/06/25 04:08:41;;;;;;;24.08;17.98;;;;;;;17.09;100.00;101762.25;5109298;28;20031;-72
2023/06/25 04:11:06;;;;;;;23.73;18.48;;;;;;;17.10;100.00;101761.19;5109275;28;20020;-72
2023/06/25 04:13:32;;;;;;;23.58;19.23;;;;;;;17.13;100.00;101763.44;5107854;28;20088;-72
2023/06/25 04:15:57;;;;;;;22.65;18.25;;;;;;;17.13;100.00;101763.44;5109180;28;21055;-72
2023/06/25 04:18:22;;;;;;;23.45;17.75;;;;;;;17.19;100.00;101772.56;5109233;28;20116;-72
2023/06/25 04:20:48;;;;;;;23.95;18.80;;;;;;;17.18;100.00;101766.31;5109264;28;20036;-72
2023/06/25 04:23:13;;;;;;;23.60;19.67;;;;;;;17.25;100.00;101758.19;5109082;28;20020;-72
2023/06/25 04:25:38;;;;;;;24.13;19.58;;;;;;;17.35;100.00;101768.50;5109123;28;20301;-72
2023/06/25 04:28:04;;;;;;;25.52;21.30;;;;;;;17.33;100.00;101757.09;5109219;28;20055;-72
2023/06/25 04:30:29;;;;;;;22.17;18.85;;;;;;;17.41;100.00;101763.03;5108876;28;20049;-72
2023/06/25 04:32:55;;;;;;;25.83;20.02;;;;;;;17.49;100.00;101756.53;5108954;28;20020;-72
2023/06/25 04:35:20;;;;;;;22.70;18.05;;;;;;;17.61;100.00;101762.88;5109041;28;20157;-72
2023/06/25 04:37:45;;;;;;;22.30;18.70;;;;;;;17.65;100.00;101752.47;5107720;28;20068;-73
2023/06/25 04:40:12;;;;;;;25.67;20.67;;;;;;;17.82;100.00;101763.56;5109005;28;20031;-72
2023/06/25 04:42:37;;;;;;;22.77;19.33;;;;;;;18.05;100.00;101752.94;5108861;28;20031;-72
2023/06/25 04:45:03;;;;;;;22.85;19.35;;;;;;;18.64;100.00;101757.84;5090222;28;20024;-72
2023/06/25 04:47:29;;;;;;;26.95;19.70;;;;;;;18.94;100.00;101765.97;5108779;28;20036;-72
2023/06/25 04:49:54;;;;;;;24.63;20.33;;;;;;;18.99;100.00;101763.41;5108840;28;20076;-72
2023/06/25 04:52:19;;;;;;;28.90;19.30;;;;;;;19.03;100.00;101757.31;5108575;28;20103;-73
2023/06/25 04:54:45;;;;;;;23.52;18.30;;;;;;;18.94;100.00;101765.97;5108916;28;20035;-72
2023/06/25 04:57:11;;;;;;;24.05;18.67;;;;;;;18.86;100.00;101771.72;5108795;28;20462;-72
2023/06/25 04:59:36;;;;;;;24.80;19.63;;;;;;;18.80;100.00;101763.47;5108809;28;20031;-72
2023/06/25 05:02:02;;;;;;;23.02;20.17;;;;;;;18.74;100.00;101760.84;5108669;28;20398;-72
2023/06/25 05:04:27;;;;;;;25.77;20.63;;;;;;;18.73;100.00;101751.06;5108713;28;20066;-72
2023/06/25 05:06:53;;;;;;;23.80;21.15;;;;;;;18.83;100.00;101770.28;5108734;28;20028;-72
2023/06/25 05:09:18;;;;;;;24.52;21.52;;;;;;;19.37;100.00;101764.91;5108683;28;20114;-72
2023/06/25 05:11:43;;;;;;;22.65;20.20;;;;;;;19.62;100.00;101759.28;5108479;28;20173;-72
2023/06/25 05:14:09;;;;;;;25.67;21.58;;;;;;;19.64;100.00;101759.88;5112405;28;20055;-72
2023/06/25 05:16:34;;;;;;;24.63;22.02;;;;;;;19.55;100.00;101764.00;5112450;28;20024;-72
2023/06/25 05:19:00;;;;;;;26.75;22.00;;;;;;;19.50;100.00;101767.41;5112248;28;20106;-72
2023/06/25 05:21:25;;;;;;;24.15;21.58;;;;;;;19.49;100.00;101769.28;5112585;28;20047;-72
2023/06/25 05:23:58;;;;;;;28.70;23.10;;;;;;;19.48;100.00;101764.91;5112186;28;20368;-72
2023/06/25 05:26:24;;;;;;;23.70;21.15;;;;;;;19.51;100.00;101765.50;5110737;28;20074;-72
2023/06/25 05:28:49;;;;;;;27.20;21.65;;;;;;;19.48;100.00;101767.63;5110707;28;20135;-72
2023/06/25 05:31:15;;;;;;;24.40;21.13;;;;;;;19.49;100.00;101771.16;5111898;28;20562;-72
2023/06/25 05:33:40;;;;;;;24.27;20.45;;;;;;;19.53;100.00;101769.63;5110662;28;20032;-72
2023/06/25 05:36:05;;;;;;;21.90;18.27;;;;;;;19.53;100.00;101766.94;5111782;28;20035;-72
2023/06/25 05:38:31;;;;;;;23.85;20.20;;;;;;;19.58;100.00;101772.47;5112110;28;20039;-72
2023/06/25 05:40:56;;;;;;;26.77;20.98;;;;;;;19.67;100.00;101765.66;5110439;28;20105;-72
2023/06/25 05:43:21;;;;;;;22.98;19.08;;;;;;;19.76;100.00;101763.44;5110545;28;20070;-72
2023/06/25 05:45:47;;;;;;;23.65;19.25;;;;;;;19.87;100.00;101770.75;5111715;28;20058;-72
2023/06/25 05:48:12;;;;;;;24.15;20.13;;;;;;;19.93;100.00;101766.25;5111784;28;20479;-72
2023/06/25 05:50:37;;;;;;;23.27;19.75;;;;;;;20.04;100.00;101762.72;5111652;28;20050;-72
2023/06/25 05:53:03;;;;;;;23.88;19.15;;;;;;;20.13;100.00;101764.00;5109937;28;20060;-72
2023/06/25 05:55:28;;;;;;;23.08;17.50;;;;;;;20.18;100.00;101754.34;5110288;28;20201;-72
2023/06/25 05:57:53;;;;;;;21.48;17.00;;;;;;;20.26;100.00;101754.78;5111631;28;20484;-72
2023/06/25 06:00:21;;;;;;;23.90;17.23;;;;;;;20.35;100.00;101758.75;5110221;28;20496;-72
2023/06/25 06:02:46;;;;;;;20.08;15.60;;;;;;;20.40;100.00;101749.09;5110948;28;20371;-72
2023/06/25 06:05:12;;;;;;;21.75;15.98;;;;;;;20.39;97.44;101756.41;5111472;28;20027;-72
2023/06/25 06:07:37;;;;;;;21.13;15.68;;;;;;;20.35;97.41;101749.81;5111344;28;20092;-72
2023/06/25 06:10:03;;;;;;;22.67;16.42;;;;;;;20.34;97.45;101753.59;5111389;27;20031;-72
2023/06/25 06:12:29;;;;;;;22.02;15.90;;;;;;;20.38;96.52;101754.75;5111161;28;20031;-72
2023/06/25 06:14:55;;;;;;;23.52;16.73;;;;;;;20.43;97.11;101745.91;5111216;28;20083;-72
2023/06/25 06:17:20;;;;;;;21.63;16.45;;;;;;;20.48;96.01;101749.53;5111166;28;20027;-72
2023/06/25 06:19:46;;;;;;;22.50;16.58;;;;;;;20.50;96.35;101742.00;5110997;28;20364;-72
2023/06/25 06:22:13;;;;;;;21.15;16.83;;;;;;;20.55;96.68;101750.25;5110696;28;20035;-72
2023/06/25 06:24:38;;;;;;;21.23;15.35;;;;;;;20.57;94.48;101744.59;5111050;28;20032;-72
2023/06/25 06:27:04;;;;;;;21.58;16.38;;;;;;;20.64;95.86;101756.09;5109229;28;20478;-72
2023/06/25 06:29:30;;;;;;;22.23;17.23;;;;;;;20.72;95.50;101753.03;5111252;28;20470;-72
2023/06/25 06:31:55;;;;;;;23.45;16.48;;;;;;;20.77;97.35;101753.09;5110865;28;20024;-72
2023/06/25 06:34:20;;;;;;;21.10;16.20;;;;;;;20.88;96.24;101753.28;5110774;28;20364;-72
2023/06/25 06:36:46;;;;;;;21.60;16.02;;;;;;;20.94;95.20;101746.91;5110857;28;20382;-72
2023/06/25 06:39:13;;;;;;;21.42;15.10;;;;;;;21.01;95.17;101742.13;5110592;28;20043;-72
2023/06/25 06:41:38;;;;;;;22.15;15.10;;;;;;;21.08;95.66;101736.56;5110665;28;20024;-72
2023/06/25 06:44:12;;;;;;;21.58;15.23;;;;;;;21.18;95.48;101745.69;5109159;28;20059;-72
2023/06/25 06:46:38;;;;;;;21.70;16.20;;;;;;;21.26;93.08;101738.22;5110637;28;20367;-72
2023/06/25 06:49:03;;;;;;;22.52;15.95;;;;;;;21.32;92.81;101740.75;5109213;28;20076;-72
2023/06/25 06:51:28;;;;;;;23.00;15.25;;;;;;;21.40;91.56;101739.56;5110345;28;20032;-72
2023/06/25 06:53:54;;;;;;;20.55;14.43;;;;;;;21.46;92.98;101733.16;5110462;28;20040;-72
2023/06/25 06:56:19;;;;;;;22.27;15.63;;;;;;;21.56;91.74;101735.19;5110262;28;20036;-72
2023/06/25 06:58:44;;;;;;;24.13;17.23;;;;;;;21.62;90.75;101745.06;5110635;28;20051;-72
2023/06/25 07:01:10;;;;;;;21.40;16.02;;;;;;;21.71;92.42;101729.97;5110195;28;20031;-72
2023/06/25 07:03:35;;;;;;;20.05;14.88;;;;;;;21.76;90.09;101740.09;5110542;28;20110;-72
2023/06/25 07:06:00;;;;;;;22.40;16.35;;;;;;;21.82;87.97;101736.38;5109892;28;20024;-72
2023/06/25 07:08:26;;;;;;;22.02;15.10;;;;;;;21.92;88.23;101728.38;5109632;28;20038;-72
2023/06/25 07:10:51;;;;;;;20.27;14.73;;;;;;;22.02;87.67;101735.84;5108648;28;20024;-72
2023/06/25 07:13:16;;;;;;;21.15;16.17;;;;;;;22.10;87.03;101733.50;5109843;28;20485;-72
2023/06/25 07:15:42;;;;;;;21.42;14.90;;;;;;;22.20;88.68;101735.56;5109910;28;20031;-72
2023/06/25 07:18:07;;;;;;;23.40;17.30;;;;;;;22.28;86.53;101735.13;5109801;28;20031;-72
2023/06/25 07:20:32;;;;;;;19.77;13.82;;;;;;;22.35;85.90;101734.94;5110126;28;20031;-72
2023/06/25 07:22:58;;;;;;;19.20;12.80;;;;;;;22.43;80.68;101736.38;5109765;28;20012;-72
2023/06/25 07:25:23;;;;;;;19.08;12.40;;;;;;;22.46;76.09;101736.69;5110033;28;20027;-72
2023/06/25 07:27:48;;;;;;;18.92;11.38;;;;;;;22.50;75.97;101734.28;5109715;28;20497;-72
2023/06/25 07:30:14;;;;;;;19.02;12.63;;;;;;;22.59;76.90;101740.91;5109813;28;20154;-72
2023/06/25 07:32:39;;;;;;;40.65;13.68;;;;;;;22.68;77.16;101742.06;5109693;28;20058;-72
2023/06/25 07:35:05;;;;;;;20.17;11.45;;;;;;;22.79;76.72;101737.56;5109109;28;20449;-72
2023/06/25 07:37:31;;;;;;;18.98;12.93;;;;;;;22.89;74.08;101732.22;5109630;28;20145;-72
2023/06/25 07:39:56;;;;;;;19.75;11.65;;;;;;;22.97;73.98;101725.53;5109603;28;20106;-70
2023/06/25 07:42:21;;;;;;;17.75;11.32;;;;;;;23.08;74.68;101721.00;5109621;28;20050;-73
2023/06/25 07:44:47;;;;;;;18.08;11.07;;;;;;;23.17;76.54;101724.88;5109348;28;20027;-75
2023/06/25 07:47:12;;;;;;;18.35;10.73;;;;;;;23.23;77.29;101725.75;5109696;28;20034;-75
2023/06/25 07:49:37;;;;;;;21.20;12.18;;;;;;;23.28;74.21;101725.78;5108278;28;20531;-75
2023/06/25 07:52:03;;;;;;;20.05;12.23;;;;;;;23.36;75.35;101725.31;5108256;28;20031;-75
2023/06/25 07:54:29;;;;;;;20.30;14.23;;;;;;;23.41;72.42;101728.06;5109029;28;20112;-75
2023/06/25 07:56:55;;;;;;;19.58;12.35;;;;;;;23.52;74.77;101716.16;5090974;28;20479;-75
2023/06/25 07:59:20;;;;;;;17.13;10.18;;;;;;;23.62;74.41;101718.13;5109372;28;20027;-75
2023/06/25 08:01:45;;;;;;;18.52;9.85;;;;;;;23.67;72.27;101725.50;5109222;28;20035;-75
2023/06/25 08:04:11;;;;;;;17.42;10.38;;;;;;;23.71;73.18;101710.25;5109621;28;20111;-75
2023/06/25 08:06:36;;;;;;;17.88;10.40;;;;;;;23.80;73.89;101717.72;5107975;28;20031;-76
2023/06/25 08:09:03;;;;;;;13.05;7.75;;;;;;;23.94;69.64;101718.03;5109226;28;20074;-76
2023/06/25 08:11:28;;;;;;;11.60;7.25;;;;;;;23.98;69.24;101696.56;5109042;28;20040;-74
2023/06/25 08:13:54;;;;;;;13.00;7.55;;;;;;;24.22;66.39;101703.19;5108979;28;20090;-73
2023/06/25 08:16:19;;;;;;;12.13;7.18;;;;;;;24.96;64.64;101708.53;5109022;28;20031;-74
2023/06/25 08:18:44;;;;;;;12.85;7.03;;;;;;;26.75;57.74;101703.34;5109217;28;20028;-74
2023/06/25 08:21:10;;;;;;;12.20;6.15;;;;;;;29.15;50.39;101704.34;5107851;28;20072;-74
2023/06/25 08:23:35;;;;;;;12.82;6.78;;;;;;;30.99;45.63;101694.94;5109241;28;20031;-74
2023/06/25 08:26:00;;;;;;;15.07;8.13;;;;;;;32.30;42.00;101697.09;5109171;28;20024;-74
2023/06/25 08:28:26;;;;;;;11.00;6.28;;;;;;;33.59;39.39;101702.75;5108827;28;20147;-74
2023/06/25 08:30:51;;;;;;;10.05;5.93;;;;;;;34.87;37.82;101691.41;5107713;28;20570;-74
2023/06/25 08:33:16;;;;;;;11.60;7.72;;;;;;;35.66;34.82;101696.88;5108630;28;20036;-75
2023/06/25 08:35:42;;;;;;;11.98;7.05;;;;;;;35.70;33.78;101686.72;5109160;28;20035;-74
2023/06/25 08:38:08;;;;;;;11.40;6.38;;;;;;;36.18;32.84;101690.56;5107491;28;20371;-74
2023/06/25 08:40:40;;;;;;;13.40;7.22;;;;;;;36.63;34.24;101681.19;5109117;28;20471;-75
2023/06/25 08:43:06;;;;;;;10.77;6.03;;;;;;;36.67;32.12;101682.09;5108876;28;20534;-75
2023/06/25 08:45:31;;;;;;;10.75;6.50;;;;;;;37.56;31.94;101680.03;5109635;28;20119;-75
2023/06/25 08:48:02;;;;;;;11.50;6.65;;;;;;;37.62;31.00;101668.22;5112898;28;20027;-75
2023/06/25 08:50:29;;;;;;;9.88;6.32;;;;;;;37.93;29.88;101672.91;5112882;28;20072;-77
2023/06/25 08:52:55;;;;;;;11.75;6.00;;;;;;;37.75;29.71;101665.34;5104223;28;20562;-74
2023/06/25 08:55:24;;;;;;;12.32;5.90;;;;;;;38.04;30.08;101672.38;5104157;28;20122;-76
2023/06/25 08:57:49;;;;;;;11.95;5.32;;;;;;;37.67;28.92;101665.16;5102838;28;20031;-74
2023/06/25 09:00:16;;;;;;;8.32;5.22;;;;;;;37.94;29.88;101665.38;5104490;28;20038;-79
2023/06/25 09:02:42;;;;;;;8.65;5.45;;;;;;;38.00;28.59;101666.72;5105338;28;20019;-76
2023/06/25 09:05:13;;;;;;;7.38;4.70;;;;;;;38.20;31.07;101667.56;5103952;28;20028;-76
2023/06/25 09:07:46;;;;;;;9.70;5.38;;;;;;;38.09;30.54;101666.50;5104679;28;20028;-77
2023/06/25 09:10:12;;;;;;;8.32;5.10;;;;;;;36.18;31.36;101663.63;5103787;28;20024;-77
2023/06/25 09:12:38;;;;;;;9.23;5.85;;;;;;;34.56;33.65;101664.13;5104678;28;20420;-76
2023/06/25 09:15:05;;;;;;;8.60;4.93;;;;;;;33.06;36.51;101654.28;5102771;28;20028;-76
2023/06/25 09:17:31;;;;;;;7.20;4.50;;;;;;;32.03;40.00;101664.25;5101906;28;20509;-75
2023/06/25 09:20:03;;;;;;;10.05;5.35;;;;;;;31.14;40.73;101655.16;5103502;28;20032;-74
2023/06/25 09:22:28;;;;;;;8.38;4.90;;;;;;;30.58;44.26;101658.22;5103935;28;20039;-73
2023/06/25 09:24:53;;;;;;;8.60;5.20;;;;;;;30.13;45.21;101647.13;5104431;28;20028;-74
2023/06/25 09:27:20;;;;;;;10.30;5.05;;;;;;;29.82;45.15;101640.69;5101604;28;20047;-77
2023/06/25 09:29:45;;;;;;;6.97;4.72;;;;;;;29.68;45.18;101646.16;5101638;28;20472;-78
2023/06/25 09:32:11;;;;;;;7.93;5.13;;;;;;;29.40;44.79;101648.09;5102701;28;20052;-76
2023/06/25 09:34:40;;;;;;;9.27;4.53;;;;;;;29.28;46.26;101645.84;5101009;28;20030;-77
2023/06/25 09:37:05;;;;;;;6.82;4.47;;;;;;;29.31;48.41;101647.16;5102834;28;20019;-77
2023/06/25 09:39:31;;;;;;;8.55;5.00;;;;;;;29.21;46.79;101648.16;5102427;28;20068;-75
2023/06/25 09:41:57;;;;;;;9.98;4.93;;;;;;;29.14;47.27;101640.34;5102627;28;20028;-75
2023/06/25 09:44:23;;;;;;;6.95;5.20;;;;;;;29.16;48.93;101640.03;5102694;28;20016;-75
2023/06/25 09:46:52;;;;;;;7.47;4.75;;;;;;;29.09;48.67;101640.44;5102743;28;20028;-76
2023/06/25 09:49:19;;;;;;;10.40;4.78;;;;;;;29.16;49.69;101638.09;5102892;28;20498;-75
2023/06/25 09:51:58;;;;;;;9.05;5.10;;;;;;;29.08;47.46;101627.78;5102357;28;20046;-75
2023/06/25 09:54:25;;;;;;;6.65;4.10;;;;;;;29.05;47.06;101622.91;5102994;28;20048;-74
2023/06/25 09:56:51;;;;;;;8.55;4.95;;;;;;;29.09;48.23;101621.19;5102976;28;20058;-72
2023/06/25 09:59:16;;;;;;;8.15;5.25;;;;;;;29.11;48.42;101626.38;5104160;28;20110;-74
2023/06/25 10:01:42;;;;;;;10.38;4.72;;;;;;;29.20;49.86;101625.38;5101556;28;20248;-73
2023/06/25 10:04:08;;;;;;;6.45;4.85;;;;;;;29.26;46.69;101631.59;5101224;28;20031;-78
2023/06/25 10:06:35;;;;;;;8.32;5.13;;;;;;;29.29;47.04;101625.47;5102941;28;20035;-75
2023/06/25 10:09:03;;;;;;;6.93;4.10;;;;;;;29.39;48.16;101629.97;5104217;28;20036;-74
2023/06/25 10:11:28;;;;;;;7.75;4.55;;;;;;;29.36;48.34;101623.16;5103196;28;20027;-76
2023/06/25 10:13:56;;;;;;;8.65;5.03;;;;;;;29.36;46.13;101608.59;5103546;28;20037;-77
2023/06/25 10:16:22;;;;;;;6.07;4.30;;;;;;;29.47;45.91;101615.50;5104987;28;20028;-75
2023/06/25 10:18:52;;;;;;;5.65;4.05;;;;;;;29.42;44.76;101610.09;5104548;28;20042;-75
2023/06/25 10:21:23;;;;;;;5.80;4.47;;;;;;;29.47;44.00;101618.25;5104179;28;20032;-75
2023/06/25 10:24:03;;;;;;;9.32;4.85;;;;;;;29.57;46.72;101623.53;5103840;28;20020;-76
2023/06/25 10:26:36;;;;;;;6.72;4.68;;;;;;;29.61;45.67;101599.84;5103787;28;20032;-77
2023/06/25 10:29:06;;;;;;;8.13;4.68;;;;;;;29.50;46.03;101603.91;5104722;28;20027;-76
2023/06/25 10:31:40;;;;;;;7.70;4.47;;;;;;;29.55;45.60;101600.22;5103295;28;20020;-77
2023/06/25 10:34:07;;;;;;;10.77;4.38;;;;;;;29.67;47.08;101597.81;5105060;28;20374;-77
2023/06/25 10:36:32;;;;;;;6.70;4.38;;;;;;;29.77;47.19;101585.78;5103978;28;20050;-78
2023/06/25 10:38:58;;;;;;;7.45;4.95;;;;;;;29.81;45.43;101593.09;5103825;28;20123;-78
2023/06/25 10:41:31;;;;;;;6.20;3.97;;;;;;;29.85;44.50;101590.56;5104620;28;20509;-77
2023/06/25 10:43:57;;;;;;;8.32;4.57;;;;;;;29.73;43.77;101580.06;5103357;28;20491;-77
2023/06/25 10:46:30;;;;;;;8.75;4.57;;;;;;;29.88;43.17;101590.72;5104424;28;20046;-69
2023/06/25 10:48:55;;;;;;;7.65;4.70;;;;;;;29.92;40.19;101585.41;5104204;28;20073;-71
2023/06/25 10:51:22;;;;;;;6.97;3.80;;;;;;;29.97;42.63;101577.03;5103766;28;20487;-72
2023/06/25 10:53:47;;;;;;;7.63;4.40;;;;;;;30.10;41.16;101580.88;5103223;28;20066;-72
2023/06/25 10:56:12;;;;;;;6.20;4.68;;;;;;;30.17;42.59;101581.28;5103956;28;20419;-73
2023/06/25 10:58:41;;;;;;;7.47;4.40;;;;;;;30.27;42.93;101574.75;5103463;28;20038;-73
2023/06/25 11:01:07;;;;;;;7.53;4.07;;;;;;;30.31;42.96;101572.97;5103683;28;20485;-71
2023/06/25 11:03:36;;;;;;;6.15;4.20;;;;;;;30.38;42.23;101575.31;5104138;28;20025;-71